Time;durP1;ratioP1;P1;durP2;ratioP2;P2;SDS_P1;SDS_P2;PMS_P1;PMS_P2;Temp;Humidity;BMP_temperature;BMP_pressure;BME280_temperature;BME280_humidity;BME280_pressure;Samples;Min_cycle;Max_cycle;Signal;HPM_P1;HPM_P2
2022/09/14 00:00:23;;;;;;;;;18.00;17.00;;;;;;;;5099443;27;45332;-72
2022/09/14 00:02:48;;;;;;;;;18.00;18.00;;;;;;;;5099007;27;45269;-72
2022/09/14 00:05:13;;;;;;;;;19.00;16.33;;;;;;;;5099053;27;45316;-72
2022/09/14 00:07:38;;;;;;;;;21.67;20.00;;;;;;;;5099163;27;45403;-73
2022/09/14 00:10:04;;;;;;;;;23.33;19.00;;;;;;;;5098862;27;45473;-72
2022/09/14 00:12:29;;;;;;;;;21.67;20.67;;;;;;;;5098770;27;45461;-72
2022/09/14 00:14:54;;;;;;;;;16.67;14.67;;;;;;;;5096952;27;45454;-72
2022/09/14 00:17:19;;;;;;;;;15.33;13.33;;;;;;;;5078729;28;45313;-72
2022/09/14 00:19:45;;;;;;;;;21.33;17.67;;;;;;;;5078661;28;45412;-72
2022/09/14 00:22:10;;;;;;;;;25.33;19.33;;;;;;;;5078259;28;47140;-72
2022/09/14 00:24:35;;;;;;;;;16.33;16.00;;;;;;;;5078409;28;45422;-72
2022/09/14 00:27:01;;;;;;;;;20.33;17.33;;;;;;;;5078100;28;45420;-71
2022/09/14 00:29:26;;;;;;;;;18.00;15.33;;;;;;;;5078562;27;45328;-71
2022/09/14 00:31:52;;;;;;;;;21.00;18.67;;;;;;;;5078097;28;45459;-72
2022/09/14 00:34:18;;;;;;;;;22.00;19.67;;;;;;;;5077893;27;45460;-72
2022/09/14 00:36:44;;;;;;;;;15.33;15.00;;;;;;;;5078425;28;45439;-71
2022/09/14 00:39:09;;;;;;;;;18.00;15.00;;;;;;;;5078161;27;45479;-72
2022/09/14 00:41:35;;;;;;;;;18.00;16.00;;;;;;;;5077744;28;46100;-72
2022/09/14 00:44:09;;;;;;;;;14.67;14.67;;;;;;;;5078105;27;45380;-72
2022/09/14 00:46:45;;;;;;;;;21.33;17.33;;;;;;;;5077982;28;45294;-71
2022/09/14 00:49:12;;;;;;;;;18.00;17.00;;;;;;;;5077579;28;45479;-72
2022/09/14 00:51:40;;;;;;;;;16.33;15.33;;;;;;;;5077503;27;46300;-72
2022/09/14 00:54:06;;;;;;;;;21.33;18.67;;;;;;;;5077580;28;45242;-71
2022/09/14 00:56:32;;;;;;;;;19.00;16.33;;;;;;;;5077887;28;45533;-71
2022/09/14 00:58:58;;;;;;;;;22.00;15.67;;;;;;;;5077989;28;45227;-72
2022/09/14 01:01:25;;;;;;;;;16.67;15.00;;;;;;;;5077955;28;46673;-71
2022/09/14 01:03:50;;;;;;;;;23.00;17.67;;;;;;;;5077594;28;45396;-72
2022/09/14 01:06:35;;;;;;;;;16.00;16.00;;;;;;;;5077775;28;45355;-72
2022/09/14 01:09:06;;;;;;;;;18.00;15.00;;;;;;;;5077334;27;45704;-72
2022/09/14 01:11:52;;;;;;;;;23.67;18.00;;;;;;;;5077174;28;45584;-72
2022/09/14 01:14:31;;;;;;;;;16.67;14.00;;;;;;;;5034773;28;45465;-72
2022/09/14 01:17:22;;;;;;;;;19.67;17.67;;;;;;;;5038291;28;45332;-72
2022/09/14 01:20:06;;;;;;;;;19.33;17.33;;;;;;;;5051488;28;45349;-72
2022/09/14 01:22:45;;;;;;;;;20.33;17.33;;;;;;;;5054931;28;46429;-72
2022/09/14 01:25:31;;;;;;;;;19.33;14.67;;;;;;;;5058835;28;45451;-72
2022/09/14 01:27:59;;;;;;;;;21.00;17.33;;;;;;;;4975184;28;45761;-72
2022/09/14 01:30:25;;;;;;;;;18.00;16.67;;;;;;;;4975778;28;45398;-71
2022/09/14 01:33:00;;;;;;;;;27.67;23.00;;;;;;;;4975428;28;47126;-72
2022/09/14 01:35:25;;;;;;;;;18.00;16.67;;;;;;;;4975327;28;45498;-71
2022/09/14 01:37:54;;;;;;;;;26.00;19.33;;;;;;;;4975405;28;45431;-72
2022/09/14 01:40:24;;;;;;;;;17.67;16.33;;;;;;;;4975530;28;45371;-72
2022/09/14 01:42:55;;;;;;;;;27.33;22.00;;;;;;;;4974156;28;46523;-71
2022/09/14 01:45:22;;;;;;;;;22.33;18.00;;;;;;;;4975394;28;45300;-71
2022/09/14 01:47:55;;;;;;;;;20.33;18.00;;;;;;;;4975434;28;45324;-72
2022/09/14 01:50:27;;;;;;;;;18.33;17.33;;;;;;;;4975210;28;45549;-72
2022/09/14 01:52:58;;;;;;;;;21.67;17.67;;;;;;;;4993938;28;46224;-72
2022/09/14 01:55:30;;;;;;;;;15.33;15.00;;;;;;;;4994852;28;45766;-72
2022/09/14 01:58:01;;;;;;;;;25.33;20.33;;;;;;;;4994599;28;45514;-72
2022/09/14 02:00:27;;;;;;;;;20.00;16.67;;;;;;;;4996565;28;45484;-72
2022/09/14 02:03:01;;;;;;;;;23.67;19.33;;;;;;;;4998226;28;46500;-72
2022/09/14 02:05:36;;;;;;;;;24.00;21.00;;;;;;;;5052778;28;45350;-72
2022/09/14 02:08:01;;;;;;;;;21.33;18.00;;;;;;;;5080354;28;45329;-72
2022/09/14 02:10:28;;;;;;;;;19.33;16.00;;;;;;;;5080512;28;45439;-72
2022/09/14 02:12:53;;;;;;;;;22.00;17.33;;;;;;;;5080135;28;46371;-72
2022/09/14 02:15:19;;;;;;;;;16.33;15.67;;;;;;;;5095207;27;45550;-72
2022/09/14 02:17:45;;;;;;;;;20.00;16.67;;;;;;;;5100953;27;45621;-72
2022/09/14 02:20:20;;;;;;;;;17.67;16.33;;;;;;;;5100983;27;45231;-72
2022/09/14 02:22:46;;;;;;;;;21.67;18.00;;;;;;;;5100559;27;46306;-72
2022/09/14 02:25:11;;;;;;;;;21.33;16.00;;;;;;;;5100731;27;45482;-72
2022/09/14 02:27:36;;;;;;;;;18.00;15.33;;;;;;;;5100606;27;45458;-72
2022/09/14 02:30:02;;;;;;;;;17.67;17.33;;;;;;;;5088856;27;45403;-72
2022/09/14 02:32:43;;;;;;;;;20.67;17.00;;;;;;;;5080008;28;47499;-72
2022/09/14 02:35:18;;;;;;;;;19.33;15.67;;;;;;;;5080154;27;45212;-72
2022/09/14 02:37:53;;;;;;;;;19.67;16.67;;;;;;;;5080148;28;45367;-73
2022/09/14 02:40:21;;;;;;;;;17.00;16.00;;;;;;;;5080386;28;45405;-72
2022/09/14 02:42:52;;;;;;;;;18.00;15.00;;;;;;;;5079631;27;46730;-72
2022/09/14 02:45:26;;;;;;;;;17.00;15.67;;;;;;;;5079822;27;45242;-72
2022/09/14 02:48:01;;;;;;;;;16.00;16.00;;;;;;;;5090308;27;45448;-73
2022/09/14 02:50:26;;;;;;;;;20.33;17.00;;;;;;;;5100679;27;45326;-72
2022/09/14 02:52:51;;;;;;;;;20.00;20.00;;;;;;;;5099966;27;45441;-72
2022/09/14 02:55:18;;;;;;;;;22.33;16.00;;;;;;;;5100266;27;45506;-72
2022/09/14 02:58:02;;;;;;;;;19.67;13.33;;;;;;;;5100029;27;45473;-72
2022/09/14 03:00:28;;;;;;;;;19.00;15.33;;;;;;;;5081919;27;45442;-72
2022/09/14 03:02:53;;;;;;;;;16.00;15.00;;;;;;;;5100025;27;45416;-72
2022/09/14 03:05:18;;;;;;;;;21.33;19.00;;;;;;;;5099327;27;45991;-72
2022/09/14 03:07:43;;;;;;;;;22.00;15.33;;;;;;;;5099986;27;45289;-72
2022/09/14 03:10:09;;;;;;;;;21.67;19.33;;;;;;;;5100305;27;45652;-72
2022/09/14 03:12:36;;;;;;;;;22.33;16.67;;;;;;;;5099038;27;45262;-72
2022/09/14 03:15:01;;;;;;;;;24.33;19.00;;;;;;;;5099886;27;45320;-72
2022/09/14 03:17:27;;;;;;;;;19.33;15.67;;;;;;;;5100072;27;45380;-72
2022/09/14 03:19:52;;;;;;;;;15.00;13.33;;;;;;;;5100052;27;45383;-72
2022/09/14 03:22:17;;;;;;;;;19.00;18.00;;;;;;;;5087587;27;46293;-72
2022/09/14 03:24:42;;;;;;;;;20.67;17.00;;;;;;;;5079334;28;45317;-72
2022/09/14 03:27:07;;;;;;;;;25.67;21.67;;;;;;;;5079374;28;45678;-72
2022/09/14 03:29:33;;;;;;;;;24.67;20.33;;;;;;;;5079543;28;45498;-72
2022/09/14 03:31:58;;;;;;;;;20.00;17.00;;;;;;;;5079053;28;47226;-73
2022/09/14 03:34:23;;;;;;;;;22.50;18.50;;;;;;;;5079277;28;45159;-72
2022/09/14 03:36:48;;;;;;;;;22.00;18.00;;;;;;;;5079395;28;45179;-72
2022/09/14 03:39:13;;;;;;;;;22.67;18.67;;;;;;;;5078763;27;45337;-72
2022/09/14 03:41:39;;;;;;;;;22.00;19.00;;;;;;;;5078867;28;45385;-72
2022/09/14 03:44:04;;;;;;;;;17.67;15.67;;;;;;;;5078943;27;45812;-72
2022/09/14 03:46:29;;;;;;;;;20.67;14.33;;;;;;;;5079294;28;45332;-72
2022/09/14 03:48:55;;;;;;;;;20.67;17.67;;;;;;;;5079189;28;45367;-71
2022/09/14 03:51:20;;;;;;;;;15.67;15.00;;;;;;;;5078904;28;47135;-72
2022/09/14 03:53:45;;;;;;;;;15.33;14.33;;;;;;;;5078619;27;45385;-72
2022/09/14 03:56:19;;;;;;;;;19.00;16.67;;;;;;;;5099269;27;45309;-72
2022/09/14 03:58:45;;;;;;;;;17.33;14.33;;;;;;;;5099211;27;45455;-72
2022/09/14 04:01:11;;;;;;;;;11.67;11.67;;;;;;;;5099098;27;46245;-72
2022/09/14 04:03:38;;;;;;;;;14.33;14.33;;;;;;;;5098984;27;45239;-72
2022/09/14 04:06:06;;;;;;;;;21.67;16.67;;;;;;;;5099222;27;45360;-72
2022/09/14 04:08:33;;;;;;;;;19.33;17.67;;;;;;;;5099364;27;45225;-72
2022/09/14 04:10:58;;;;;;;;;19.67;15.33;;;;;;;;5097194;27;46524;-72
2022/09/14 04:13:23;;;;;;;;;20.00;14.67;;;;;;;;5098802;27;45218;-72
2022/09/14 04:15:59;;;;;;;;;18.33;16.33;;;;;;;;5099118;27;45289;-72
2022/09/14 04:18:24;;;;;;;;;20.00;17.33;;;;;;;;5099267;27;45185;-73
2022/09/14 04:20:53;;;;;;;;;20.00;14.67;;;;;;;;5098702;27;46517;-72
2022/09/14 04:23:18;;;;;;;;;21.00;18.00;;;;;;;;5097784;27;45304;-72
2022/09/14 04:25:44;;;;;;;;;17.00;16.00;;;;;;;;5096898;27;45307;-71
2022/09/14 04:28:09;;;;;;;;;22.33;17.67;;;;;;;;5060302;28;45342;-72
2022/09/14 04:30:34;;;;;;;;;16.00;15.00;;;;;;;;5077960;28;46346;-72
2022/09/14 04:32:59;;;;;;;;;17.00;16.00;;;;;;;;5078304;28;45226;-72
2022/09/14 04:35:24;;;;;;;;;16.33;14.33;;;;;;;;5078368;27;45515;-72
2022/09/14 04:37:50;;;;;;;;;16.67;16.00;;;;;;;;5078548;28;45190;-72
2022/09/14 04:40:15;;;;;;;;;15.00;13.67;;;;;;;;5078096;27;45469;-72
2022/09/14 04:42:40;;;;;;;;;23.00;15.33;;;;;;;;5077884;27;45388;-71
2022/09/14 04:45:05;;;;;;;;;15.67;15.00;;;;;;;;5077897;28;45447;-72
2022/09/14 04:47:31;;;;;;;;;15.00;14.00;;;;;;;;5078192;28;45231;-72
2022/09/14 04:49:56;;;;;;;;;19.67;15.00;;;;;;;;5059667;28;46087;-72
2022/09/14 04:52:22;;;;;;;;;19.00;15.33;;;;;;;;5077799;27;45507;-72
2022/09/14 04:54:47;;;;;;;;;19.00;14.00;;;;;;;;5078078;28;45249;-71
2022/09/14 04:57:12;;;;;;;;;14.67;14.67;;;;;;;;5078050;27;45485;-71
2022/09/14 04:59:37;;;;;;;;;14.00;12.33;;;;;;;;5077163;27;46455;-71
2022/09/14 05:02:03;;;;;;;;;17.00;15.33;;;;;;;;5077853;28;45430;-71
2022/09/14 05:04:28;;;;;;;;;13.00;12.33;;;;;;;;5077903;28;45373;-73
2022/09/14 05:06:55;;;;;;;;;12.33;12.33;;;;;;;;5078086;28;45443;-72
2022/09/14 05:09:20;;;;;;;;;13.33;13.00;;;;;;;;5077481;28;47160;-72
2022/09/14 05:11:46;;;;;;;;;23.00;17.33;;;;;;;;5077353;28;45368;-73
2022/09/14 05:14:12;;;;;;;;;18.00;15.67;;;;;;;;5076931;27;45415;-72
2022/09/14 05:16:38;;;;;;;;;19.00;14.33;;;;;;;;5077796;28;45550;-72
2022/09/14 05:19:04;;;;;;;;;17.67;12.67;;;;;;;;5077467;27;46328;-71
2022/09/14 05:21:31;;;;;;;;;17.33;12.00;;;;;;;;5077553;28;45318;-71
2022/09/14 05:24:00;;;;;;;;;14.67;14.67;;;;;;;;5077552;28;45394;-72
2022/09/14 05:26:26;;;;;;;;;5.00;5.00;;;;;;;;5077950;28;45510;-71
2022/09/14 05:28:53;;;;;;;;;19.00;14.33;;;;;;;;5077198;28;45619;-71
2022/09/14 05:31:18;;;;;;;;;15.33;14.00;;;;;;;;5077225;28;45353;-71
2022/09/14 05:33:44;;;;;;;;;11.33;11.33;;;;;;;;5076502;27;45418;-71
2022/09/14 05:36:09;;;;;;;;;13.67;13.67;;;;;;;;5080699;28;46030;-72
2022/09/14 05:38:35;;;;;;;;;20.00;13.67;;;;;;;;5080828;28;46160;-72
2022/09/14 05:41:01;;;;;;;;;25.67;20.67;;;;;;;;5080708;27;45408;-72
2022/09/14 05:43:27;;;;;;;;;19.67;17.00;;;;;;;;5080902;28;45277;-72
2022/09/14 05:45:52;;;;;;;;;11.67;10.67;;;;;;;;5080787;28;45217;-72
2022/09/14 05:48:18;;;;;;;;;12.00;10.67;;;;;;;;5080683;27;46307;-72
2022/09/14 05:50:43;;;;;;;;;14.00;13.00;;;;;;;;5080228;27;45442;-72
2022/09/14 05:53:08;;;;;;;;;17.33;15.00;;;;;;;;5080586;28;45572;-72
2022/09/14 05:55:33;;;;;;;;;19.67;14.00;;;;;;;;5080498;28;45528;-72
2022/09/14 05:57:59;;;;;;;;;11.00;11.00;;;;;;;;5080548;28;47094;-72
2022/09/14 06:00:24;;;;;;;;;15.00;13.00;;;;;;;;5080378;28;45325;-72
2022/09/14 06:02:50;;;;;;;;;14.67;11.33;;;;;;;;5080218;27;45471;-73
2022/09/14 06:05:16;;;;;;;;;14.33;13.00;;;;;;;;5080229;27;45388;-72
2022/09/14 06:07:41;;;;;;;;;16.33;13.00;;;;;;;;5080151;27;46182;-73
2022/09/14 06:10:07;;;;;;;;;10.67;10.33;;;;;;;;5080282;28;45327;-72
2022/09/14 06:12:33;;;;;;;;;12.33;12.33;;;;;;;;5080651;28;45442;-72
2022/09/14 06:14:58;;;;;;;;;16.00;12.67;;;;;;;;5080458;28;45502;-72
2022/09/14 06:17:23;;;;;;;;;14.33;12.67;;;;;;;;5080013;28;45467;-72
2022/09/14 06:19:48;;;;;;;;;15.00;12.00;;;;;;;;5084115;27;48288;-72
2022/09/14 06:22:13;;;;;;;;;18.67;14.00;;;;;;;;5100802;27;45249;-73
2022/09/14 06:24:39;;;;;;;;;14.00;11.33;;;;;;;;5101043;27;45402;-73
2022/09/14 06:27:07;;;;;;;;;17.67;13.67;;;;;;;;5100446;27;46498;-72
2022/09/14 06:29:33;;;;;;;;;13.00;11.33;;;;;;;;5100435;27;45339;-72
2022/09/14 06:31:58;;;;;;;;;16.00;13.67;;;;;;;;5100787;27;45237;-72
2022/09/14 06:34:23;;;;;;;;;13.00;13.00;;;;;;;;5100777;27;45692;-72
2022/09/14 06:36:48;;;;;;;;;13.00;11.00;;;;;;;;5099511;27;46449;-72
2022/09/14 06:39:13;;;;;;;;;16.67;13.33;;;;;;;;5100414;27;45399;-74
2022/09/14 06:41:39;;;;;;;;;12.33;10.33;;;;;;;;5100540;27;46008;-73
2022/09/14 06:44:04;;;;;;;;;11.00;10.67;;;;;;;;5100881;27;45377;-73
2022/09/14 06:46:30;;;;;;;;;14.33;12.33;;;;;;;;5098981;27;47104;-73
2022/09/14 06:48:57;;;;;;;;;14.33;12.00;;;;;;;;5100159;27;45382;-74
2022/09/14 06:51:24;;;;;;;;;13.67;13.00;;;;;;;;5100470;27;45458;-74
2022/09/14 06:53:50;;;;;;;;;11.33;10.67;;;;;;;;5100242;27;45264;-74
2022/09/14 06:56:16;;;;;;;;;8.67;8.67;;;;;;;;5100310;27;46001;-74
2022/09/14 06:58:41;;;;;;;;;16.00;12.67;;;;;;;;5100101;27;45517;-73
2022/09/14 07:01:09;;;;;;;;;9.33;9.33;;;;;;;;5100132;27;45210;-73
2022/09/14 07:03:35;;;;;;;;;10.67;10.67;;;;;;;;5100463;27;45311;-73
2022/09/14 07:06:05;;;;;;;;;12.00;11.33;;;;;;;;5099653;27;46605;-73
2022/09/14 07:08:30;;;;;;;;;13.33;13.00;;;;;;;;5099973;27;45443;-73
2022/09/14 07:10:57;;;;;;;;;11.67;11.67;;;;;;;;5099948;27;45528;-73
2022/09/14 07:13:22;;;;;;;;;16.67;10.67;;;;;;;;5099784;27;45296;-73
2022/09/14 07:15:49;;;;;;;;;13.67;13.67;;;;;;;;5099494;27;46452;-73
2022/09/14 07:18:14;;;;;;;;;13.67;13.00;;;;;;;;5098864;27;45258;-73
2022/09/14 07:20:39;;;;;;;;;16.33;13.33;;;;;;;;5099760;27;45626;-73
2022/09/14 07:23:05;;;;;;;;;12.67;10.33;;;;;;;;5100086;27;45314;-73
2022/09/14 07:25:30;;;;;;;;;12.33;12.33;;;;;;;;5099833;27;45825;-73
2022/09/14 07:27:55;;;;;;;;;13.33;11.00;;;;;;;;5099814;27;45296;-73
2022/09/14 07:30:23;;;;;;;;;15.33;12.33;;;;;;;;5099546;27;45308;-73
2022/09/14 07:32:48;;;;;;;;;13.00;11.67;;;;;;;;5100014;27;45332;-73
2022/09/14 07:35:14;;;;;;;;;13.33;13.33;;;;;;;;5099529;27;46118;-73
2022/09/14 07:37:39;;;;;;;;;14.33;13.33;;;;;;;;5099582;27;45299;-73
2022/09/14 07:40:04;;;;;;;;;15.67;14.33;;;;;;;;5099806;27;45284;-73
2022/09/14 07:42:30;;;;;;;;;17.00;14.00;;;;;;;;5099548;27;45209;-72
2022/09/14 07:44:56;;;;;;;;;16.33;14.67;;;;;;;;5099153;27;46712;-72
2022/09/14 07:47:21;;;;;;;;;14.67;13.33;;;;;;;;5099358;27;45460;-72
2022/09/14 07:49:46;;;;;;;;;14.00;13.67;;;;;;;;5099524;27;45267;-73
2022/09/14 07:52:11;;;;;;;;;13.67;13.00;;;;;;;;5099692;27;45292;-73
2022/09/14 07:54:37;;;;;;;;;17.00;13.67;;;;;;;;5098627;27;47180;-73
2022/09/14 07:57:02;;;;;;;;;13.00;11.67;;;;;;;;5099335;27;45340;-73
2022/09/14 07:59:27;;;;;;;;;15.67;14.33;;;;;;;;5099272;27;45336;-73
2022/09/14 08:01:52;;;;;;;;;13.33;13.33;;;;;;;;5099370;27;45348;-73
2022/09/14 08:04:18;;;;;;;;;11.00;11.00;;;;;;;;5099400;27;46261;-73
2022/09/14 08:06:43;;;;;;;;;15.00;14.67;;;;;;;;5099005;27;45230;-73
2022/09/14 08:09:08;;;;;;;;;16.33;13.33;;;;;;;;5099411;27;45223;-74
2022/09/14 08:11:34;;;;;;;;;13.67;10.33;;;;;;;;5099060;27;45594;-72
2022/09/14 08:14:10;;;;;;;;;19.00;16.00;;;;;;;;5098824;27;46065;-72
2022/09/14 08:16:37;;;;;;;;;14.33;12.67;;;;;;;;5098919;27;45481;-73
2022/09/14 08:19:04;;;;;;;;;18.33;13.00;;;;;;;;5098958;27;45316;-72
2022/09/14 08:21:31;;;;;;;;;18.00;16.33;;;;;;;;5098836;27;45331;-72
2022/09/14 08:23:56;;;;;;;;;15.00;15.00;;;;;;;;5098787;27;45694;-73
2022/09/14 08:26:23;;;;;;;;;14.33;14.00;;;;;;;;5098723;27;45489;-73
2022/09/14 08:28:49;;;;;;;;;19.67;18.67;;;;;;;;5099043;27;45451;-72
2022/09/14 08:31:14;;;;;;;;;26.33;23.00;;;;;;;;5098685;27;45364;-72
2022/09/14 08:33:41;;;;;;;;;23.67;20.67;;;;;;;;5098334;27;46346;-72
2022/09/14 08:36:07;;;;;;;;;25.00;24.00;;;;;;;;5080260;27;45952;-72
2022/09/14 08:38:32;;;;;;;;;20.67;18.67;;;;;;;;5098577;27;45515;-72
2022/09/14 08:41:00;;;;;;;;;20.00;20.00;;;;;;;;5098698;27;45395;-73
2022/09/14 08:43:26;;;;;;;;;18.00;15.67;;;;;;;;5098210;27;46289;-74
2022/09/14 08:45:55;;;;;;;;;18.67;16.67;;;;;;;;5098163;27;45321;-72
2022/09/14 08:48:25;;;;;;;;;15.33;14.67;;;;;;;;5098813;27;45353;-72
2022/09/14 08:50:52;;;;;;;;;24.67;20.00;;;;;;;;5098826;27;45263;-73
2022/09/14 08:53:19;;;;;;;;;19.33;16.33;;;;;;;;5098084;27;47460;-72
2022/09/14 08:55:47;;;;;;;;;20.67;17.33;;;;;;;;5097804;27;45354;-72
2022/09/14 08:58:17;;;;;;;;;21.67;18.67;;;;;;;;5098311;27;45376;-71
2022/09/14 09:00:52;;;;;;;;;20.33;15.67;;;;;;;;5098068;27;45368;-71
2022/09/14 09:03:20;;;;;;;;;18.00;15.00;;;;;;;;5098179;27;45255;-71
2022/09/14 09:05:57;;;;;;;;;20.00;16.33;;;;;;;;5098060;27;45587;-71
2022/09/14 09:08:40;;;;;;;;;17.67;14.67;;;;;;;;5098319;27;45411;-72
2022/09/14 09:11:08;;;;;;;;;20.33;18.00;;;;;;;;5097643;27;45382;-71
2022/09/14 09:13:36;;;;;;;;;20.00;19.33;;;;;;;;5098151;27;46680;-72
2022/09/14 09:16:03;;;;;;;;;17.00;16.00;;;;;;;;5097871;27;45474;-72
2022/09/14 09:18:36;;;;;;;;;22.33;19.00;;;;;;;;5097952;27;45258;-72
2022/09/14 09:21:11;;;;;;;;;22.33;17.67;;;;;;;;5098224;27;45281;-71
2022/09/14 09:23:36;;;;;;;;;20.00;19.00;;;;;;;;5098067;27;46246;-71
2022/09/14 09:26:10;;;;;;;;;20.67;20.33;;;;;;;;5097961;27;45286;-71
2022/09/14 09:28:43;;;;;;;;;20.67;18.00;;;;;;;;5097921;27;45324;-72
2022/09/14 09:31:10;;;;;;;;;18.00;16.00;;;;;;;;5079714;27;45437;-72
2022/09/14 09:33:35;;;;;;;;;16.67;15.00;;;;;;;;5097723;27;46482;-72
2022/09/14 09:36:01;;;;;;;;;14.67;13.67;;;;;;;;5097913;27;45431;-72
2022/09/14 09:38:27;;;;;;;;;18.33;14.67;;;;;;;;5097983;27;45197;-72
2022/09/14 09:40:58;;;;;;;;;24.67;15.00;;;;;;;;5097846;27;45289;-72
2022/09/14 09:43:24;;;;;;;;;19.00;17.00;;;;;;;;5097421;27;45454;-72
2022/09/14 09:45:49;;;;;;;;;18.33;16.00;;;;;;;;5079049;27;45521;-73
2022/09/14 09:48:16;;;;;;;;;18.00;15.67;;;;;;;;5097779;27;45360;-72
2022/09/14 09:51:07;;;;;;;;;14.67;13.33;;;;;;;;5097679;27;45324;-72
2022/09/14 09:53:35;;;;;;;;;18.00;18.00;;;;;;;;5093284;27;46670;-72
2022/09/14 09:56:01;;;;;;;;;21.00;18.33;;;;;;;;5097437;27;45240;-72
2022/09/14 09:58:28;;;;;;;;;22.67;18.00;;;;;;;;5097557;27;45321;-72
2022/09/14 10:00:54;;;;;;;;;18.00;14.67;;;;;;;;5097767;27;45178;-72
2022/09/14 10:03:27;;;;;;;;;14.00;12.67;;;;;;;;5096565;27;46541;-72
2022/09/14 10:06:00;;;;;;;;;16.33;12.67;;;;;;;;5097319;27;45511;-72
2022/09/14 10:08:26;;;;;;;;;25.00;17.67;;;;;;;;5097537;27;45726;-72
2022/09/14 10:10:51;;;;;;;;;15.67;12.67;;;;;;;;5097513;27;45271;-72
2022/09/14 10:13:30;;;;;;;;;17.33;15.33;;;;;;;;5097497;27;46403;-72
2022/09/14 10:16:14;;;;;;;;;21.00;17.33;;;;;;;;5097284;27;45323;-72
2022/09/14 10:18:46;;;;;;;;;18.00;18.00;;;;;;;;5097314;27;45338;-72
2022/09/14 10:21:13;;;;;;;;;20.33;16.67;;;;;;;;5097518;27;45439;-71
2022/09/14 10:23:38;;;;;;;;;20.00;16.00;;;;;;;;5100785;27;45321;-72
2022/09/14 10:26:13;;;;;;;;;21.67;17.00;;;;;;;;5100606;27;45320;-72
2022/09/14 10:28:39;;;;;;;;;20.33;19.67;;;;;;;;5100805;27;45341;-72
2022/09/14 10:31:12;;;;;;;;;20.67;18.67;;;;;;;;5100908;27;45364;-72
2022/09/14 10:33:37;;;;;;;;;19.00;17.00;;;;;;;;5100660;27;46401;-72
2022/09/14 10:36:20;;;;;;;;;24.33;22.33;;;;;;;;5100561;27;45434;-72
2022/09/14 10:38:57;;;;;;;;;14.33;13.33;;;;;;;;5100627;27;45171;-72
2022/09/14 10:41:26;;;;;;;;;23.67;16.33;;;;;;;;5100922;27;45352;-72
2022/09/14 10:43:51;;;;;;;;;15.33;13.67;;;;;;;;5100375;27;45400;-72
2022/09/14 10:46:19;;;;;;;;;15.33;13.67;;;;;;;;5100161;27;45289;-72
2022/09/14 10:49:03;;;;;;;;;18.50;18.50;;;;;;;;5100642;27;45255;-72
2022/09/14 10:51:31;;;;;;;;;22.00;20.00;;;;;;;;5100713;27;45447;-72
2022/09/14 10:54:15;;;;;;;;;25.67;21.00;;;;;;;;5100039;27;45529;-71
2022/09/14 10:56:51;;;;;;;;;20.67;16.00;;;;;;;;5100162;27;45442;-71
2022/09/14 10:59:19;;;;;;;;;29.33;23.33;;;;;;;;5100250;27;45335;-72
2022/09/14 11:02:03;;;;;;;;;22.67;19.67;;;;;;;;5100297;27;45201;-72
2022/09/14 11:04:31;;;;;;;;;22.00;20.00;;;;;;;;5100154;27;46424;-71
2022/09/14 11:07:05;;;;;;;;;20.00;17.67;;;;;;;;5099889;27;45395;-72
2022/09/14 11:09:31;;;;;;;;;25.00;21.00;;;;;;;;5100037;27;45367;-72
2022/09/14 11:11:59;;;;;;;;;23.33;21.00;;;;;;;;5100114;27;45519;-72
2022/09/14 11:14:38;;;;;;;;;22.33;21.67;;;;;;;;5099519;27;45544;-72
2022/09/14 11:17:03;;;;;;;;;37.67;31.00;;;;;;;;5099401;27;45221;-71
2022/09/14 11:19:50;;;;;;;;;26.00;22.33;;;;;;;;5100055;27;45254;-71
2022/09/14 11:22:24;;;;;;;;;22.00;18.33;;;;;;;;5099361;27;45717;-74
2022/09/14 11:25:02;;;;;;;;;25.33;22.00;;;;;;;;5099543;27;45309;-73
2022/09/14 11:27:34;;;;;;;;;26.67;24.67;;;;;;;;5099587;27;45279;-73
2022/09/14 11:30:12;;;;;;;;;24.33;18.67;;;;;;;;5099554;27;45404;-74
2022/09/14 11:32:56;;;;;;;;;27.67;26.00;;;;;;;;5099295;27;45382;-73
2022/09/14 11:35:44;;;;;;;;;25.67;23.67;;;;;;;;5099464;27;46215;-74
2022/09/14 11:38:13;;;;;;;;;26.67;24.67;;;;;;;;5016427;28;45440;-73
2022/09/14 11:40:54;;;;;;;;;25.67;23.67;;;;;;;;5016378;28;45271;-73
2022/09/14 11:43:23;;;;;;;;;26.67;23.33;;;;;;;;5016578;28;45468;-73
2022/09/14 11:45:48;;;;;;;;;34.67;30.33;;;;;;;;5016425;28;45401;-74
2022/09/14 11:48:18;;;;;;;;;25.67;24.00;;;;;;;;5016176;28;45403;-73
2022/09/14 11:50:45;;;;;;;;;27.00;25.33;;;;;;;;5016453;28;45283;-72
2022/09/14 11:53:14;;;;;;;;;26.67;23.33;;;;;;;;5016498;28;45684;-73
2022/09/14 11:55:43;;;;;;;;;29.67;24.67;;;;;;;;5016051;28;46643;-73
2022/09/14 11:58:16;;;;;;;;;28.33;25.00;;;;;;;;5016291;28;45531;-73
2022/09/14 12:00:42;;;;;;;;;28.33;26.67;;;;;;;;5016277;28;45334;-72
2022/09/14 12:03:13;;;;;;;;;28.67;26.67;;;;;;;;5016071;28;45457;-71
2022/09/14 12:05:38;;;;;;;;;31.33;25.67;;;;;;;;4999315;28;46637;-71
2022/09/14 12:08:22;;;;;;;;;31.33;26.00;;;;;;;;5020573;28;45618;-71
2022/09/14 12:11:06;;;;;;;;;32.67;26.00;;;;;;;;5030613;28;45620;-72
2022/09/14 12:13:31;;;;;;;;;29.33;23.00;;;;;;;;5015918;28;45398;-71
2022/09/14 12:16:03;;;;;;;;;33.33;28.67;;;;;;;;5081917;27;46060;-71
2022/09/14 12:18:29;;;;;;;;;31.00;27.67;;;;;;;;5097706;27;45415;-71
2022/09/14 12:21:26;;;;;;;;;30.67;27.67;;;;;;;;5098583;27;45328;-71
2022/09/14 12:23:56;;;;;;;;;31.67;27.67;;;;;;;;4996088;28;45406;-71
2022/09/14 12:26:32;;;;;;;;;34.67;29.33;;;;;;;;5010906;28;46427;-71
2022/09/14 12:29:05;;;;;;;;;27.67;25.67;;;;;;;;5015159;28;45355;-71
2022/09/14 12:31:53;;;;;;;;;25.00;23.00;;;;;;;;5015427;28;45398;-72
2022/09/14 12:34:22;;;;;;;;;28.67;27.67;;;;;;;;5015189;28;45354;-71
2022/09/14 12:36:47;;;;;;;;;30.33;27.00;;;;;;;;5014905;28;47103;-71
2022/09/14 12:39:22;;;;;;;;;30.00;26.00;;;;;;;;5015119;28;45393;-71
2022/09/14 12:41:47;;;;;;;;;34.00;28.67;;;;;;;;5015656;28;45432;-71
2022/09/14 12:44:27;;;;;;;;;29.67;27.67;;;;;;;;5014310;28;45537;-71
2022/09/14 12:46:53;;;;;;;;;29.00;27.33;;;;;;;;5014962;28;46379;-71
2022/09/14 12:49:26;;;;;;;;;28.00;23.67;;;;;;;;5015167;28;45432;-71
2022/09/14 12:51:51;;;;;;;;;29.67;24.00;;;;;;;;5015450;28;45372;-71
2022/09/14 12:54:21;;;;;;;;;31.00;27.00;;;;;;;;5015334;28;45484;-71
2022/09/14 12:56:49;;;;;;;;;28.00;23.00;;;;;;;;5014599;28;46515;-71
2022/09/14 12:59:23;;;;;;;;;33.67;28.00;;;;;;;;5047629;27;45493;-71
2022/09/14 13:01:55;;;;;;;;;29.00;26.67;;;;;;;;5095987;27;45287;-71
2022/09/14 13:04:31;;;;;;;;;34.67;30.00;;;;;;;;5082181;27;45487;-71
2022/09/14 13:06:58;;;;;;;;;29.33;25.67;;;;;;;;5094908;27;47537;-71
2022/09/14 13:09:25;;;;;;;;;29.00;26.00;;;;;;;;5095282;27;45290;-71
2022/09/14 13:11:56;;;;;;;;;28.33;24.00;;;;;;;;5111493;27;45374;-71
2022/09/14 13:14:23;;;;;;;;;27.00;24.67;;;;;;;;5100233;27;45182;-71
2022/09/14 13:16:50;;;;;;;;;31.00;28.33;;;;;;;;5118190;27;45419;-71
2022/09/14 13:19:24;;;;;;;;;26.00;23.33;;;;;;;;5117713;27;45353;-71
2022/09/14 13:21:51;;;;;;;;;28.00;25.00;;;;;;;;5118611;27;45164;-71
2022/09/14 13:24:21;;;;;;;;;28.67;25.33;;;;;;;;5118450;27;45754;-71
2022/09/14 13:26:47;;;;;;;;;28.00;25.67;;;;;;;;5117934;27;46316;-71
2022/09/14 13:29:13;;;;;;;;;35.67;29.67;;;;;;;;5118301;27;45238;-71
2022/09/14 13:31:39;;;;;;;;;33.00;28.00;;;;;;;;5118208;27;45504;-71
2022/09/14 13:34:04;;;;;;;;;48.33;37.33;;;;;;;;5118438;27;45490;-71
2022/09/14 13:36:34;;;;;;;;;28.00;24.33;;;;;;;;5118172;27;46328;-71
2022/09/14 13:39:00;;;;;;;;;29.33;25.00;;;;;;;;5117906;27;45323;-71
2022/09/14 13:41:26;;;;;;;;;30.67;28.00;;;;;;;;5118019;27;45294;-72
2022/09/14 13:43:53;;;;;;;;;32.00;27.33;;;;;;;;5117829;27;45337;-71
2022/09/14 13:46:19;;;;;;;;;31.33;26.00;;;;;;;;5117763;27;46438;-72
2022/09/14 13:48:44;;;;;;;;;29.33;24.33;;;;;;;;5117874;27;45346;-72
2022/09/14 13:51:11;;;;;;;;;33.00;23.33;;;;;;;;5118045;27;45270;-72
2022/09/14 13:53:42;;;;;;;;;29.00;24.00;;;;;;;;5118242;27;45347;-72
2022/09/14 13:56:26;;;;;;;;;33.33;29.00;;;;;;;;5119121;27;45298;-72
2022/09/14 13:59:15;;;;;;;;;29.00;26.33;;;;;;;;5120993;27;45302;-72
2022/09/14 14:01:42;;;;;;;;;34.67;25.67;;;;;;;;5057796;28;45421;-72
2022/09/14 14:04:37;;;;;;;;;27.33;23.67;;;;;;;;5057779;28;45531;-72
2022/09/14 14:07:04;;;;;;;;;25.67;22.00;;;;;;;;4977157;28;46839;-72
2022/09/14 14:09:41;;;;;;;;;37.33;29.00;;;;;;;;4977880;28;45446;-71
2022/09/14 14:12:08;;;;;;;;;39.00;33.00;;;;;;;;4978227;28;45376;-72
2022/09/14 14:14:33;;;;;;;;;34.00;27.67;;;;;;;;4978193;28;45335;-72
2022/09/14 14:17:17;;;;;;;;;26.00;25.67;;;;;;;;4976877;28;45447;-72
2022/09/14 14:19:43;;;;;;;;;31.00;28.33;;;;;;;;4957984;28;45356;-72
2022/09/14 14:22:14;;;;;;;;;34.00;28.33;;;;;;;;4958437;28;45444;-73
2022/09/14 14:24:43;;;;;;;;;33.67;29.67;;;;;;;;4958605;28;45495;-72